sensor_id;sensor_type;location;lat;lon;timestamp;temperature;humidity
78886;DHT22;68269;52.514;5.722;2024-02-14T00:01:41;8.60;71.00
78886;DHT22;68269;52.514;5.722;2024-02-14T00:04:09;8.60;71.00
78886;DHT22;68269;52.514;5.722;2024-02-14T00:06:42;8.60;71.10
78886;DHT22;68269;52.514;5.722;2024-02-14T00:09:11;8.60;71.10
78886;DHT22;68269;52.514;5.722;2024-02-14T00:11:41;8.60;71.10
78886;DHT22;68269;52.514;5.722;2024-02-14T00:14:10;8.60;71.20
78886;DHT22;68269;52.514;5.722;2024-02-14T00:16:40;8.60;71.20
78886;DHT22;68269;52.514;5.722;2024-02-14T00:19:09;8.60;71.30
78886;DHT22;68269;52.514;5.722;2024-02-14T00:21:42;8.70;71.30
78886;DHT22;68269;52.514;5.722;2024-02-14T00:24:11;8.70;71.40
78886;DHT22;68269;52.514;5.722;2024-02-14T00:26:42;8.70;71.40
78886;DHT22;68269;52.514;5.722;2024-02-14T00:29:12;8.70;71.40
78886;DHT22;68269;52.514;5.722;2024-02-14T00:31:41;8.70;71.50
78886;DHT22;68269;52.514;5.722;2024-02-14T00:34:11;8.70;71.50
78886;DHT22;68269;52.514;5.722;2024-02-14T00:36:43;8.70;71.50
78886;DHT22;68269;52.514;5.722;2024-02-14T00:39:12;8.70;71.60
78886;DHT22;68269;52.514;5.722;2024-02-14T00:41:42;8.70;71.70
78886;DHT22;68269;52.514;5.722;2024-02-14T00:44:11;8.70;71.70
78886;DHT22;68269;52.514;5.722;2024-02-14T00:46:43;8.80;71.70
78886;DHT22;68269;52.514;5.722;2024-02-14T00:49:12;8.80;71.70
78886;DHT22;68269;52.514;5.722;2024-02-14T00:51:44;8.80;71.80
78886;DHT22;68269;52.514;5.722;2024-02-14T00:54:13;8.80;71.80
78886;DHT22;68269;52.514;5.722;2024-02-14T00:56:42;8.80;71.80
78886;DHT22;68269;52.514;5.722;2024-02-14T00:59:12;8.80;71.90
78886;DHT22;68269;52.514;5.722;2024-02-14T01:01:41;8.80;71.90
78886;DHT22;68269;52.514;5.722;2024-02-14T01:04:10;8.80;72.00
78886;DHT22;68269;52.514;5.722;2024-02-14T01:06:40;8.80;72.00
78886;DHT22;68269;52.514;5.722;2024-02-14T01:09:12;8.80;72.00
78886;DHT22;68269;52.514;5.722;2024-02-14T01:11:41;8.80;72.00
78886;DHT22;68269;52.514;5.722;2024-02-14T01:14:10;8.80;72.10
78886;DHT22;68269;52.514;5.722;2024-02-14T01:16:43;8.80;72.10
78886;DHT22;68269;52.514;5.722;2024-02-14T01:19:13;8.80;72.20
78886;DHT22;68269;52.514;5.722;2024-02-14T01:21:44;8.90;72.10
78886;DHT22;68269;52.514;5.722;2024-02-14T01:24:17;8.90;72.20
78886;DHT22;68269;52.514;5.722;2024-02-14T01:26:46;8.90;72.20
78886;DHT22;68269;52.514;5.722;2024-02-14T01:29:15;8.90;72.20
78886;DHT22;68269;52.514;5.722;2024-02-14T01:31:45;8.90;72.20
78886;DHT22;68269;52.514;5.722;2024-02-14T01:34:15;8.90;72.30
78886;DHT22;68269;52.514;5.722;2024-02-14T01:36:44;8.90;72.30
78886;DHT22;68269;52.514;5.722;2024-02-14T01:39:16;8.90;72.30
78886;DHT22;68269;52.514;5.722;2024-02-14T01:41:46;8.90;72.40
78886;DHT22;68269;52.514;5.722;2024-02-14T01:44:16;9.00;72.40
78886;DHT22;68269;52.514;5.722;2024-02-14T01:46:47;9.00;72.50
78886;DHT22;68269;52.514;5.722;2024-02-14T01:49:17;9.00;72.50
78886;DHT22;68269;52.514;5.722;2024-02-14T01:51:46;9.00;72.50
78886;DHT22;68269;52.514;5.722;2024-02-14T01:54:18;9.00;72.50
78886;DHT22;68269;52.514;5.722;2024-02-14T01:56:48;9.00;72.60
78886;DHT22;68269;52.514;5.722;2024-02-14T01:59:17;9.00;72.60
78886;DHT22;68269;52.514;5.722;2024-02-14T02:01:46;9.00;72.60
78886;DHT22;68269;52.514;5.722;2024-02-14T02:04:17;9.00;72.60
78886;DHT22;68269;52.514;5.722;2024-02-14T02:06:47;9.10;72.70
78886;DHT22;68269;52.514;5.722;2024-02-14T02:09:19;9.10;72.70
78886;DHT22;68269;52.514;5.722;2024-02-14T02:11:49;9.10;72.80
78886;DHT22;68269;52.514;5.722;2024-02-14T02:14:20;9.10;72.80
78886;DHT22;68269;52.514;5.722;2024-02-14T02:16:49;9.20;72.80
78886;DHT22;68269;52.514;5.722;2024-02-14T02:19:19;9.20;72.80
78886;DHT22;68269;52.514;5.722;2024-02-14T02:21:48;9.20;72.80
78886;DHT22;68269;52.514;5.722;2024-02-14T02:24:21;9.20;72.80
78886;DHT22;68269;52.514;5.722;2024-02-14T02:26:50;9.20;72.90
78886;DHT22;68269;52.514;5.722;2024-02-14T02:29:20;9.20;72.90
78886;DHT22;68269;52.514;5.722;2024-02-14T02:31:49;9.20;73.00
78886;DHT22;68269;52.514;5.722;2024-02-14T02:34:18;9.30;73.00
78886;DHT22;68269;52.514;5.722;2024-02-14T02:36:48;9.20;73.00
78886;DHT22;68269;52.514;5.722;2024-02-14T02:39:20;9.30;73.10
78886;DHT22;68269;52.514;5.722;2024-02-14T02:41:49;9.30;73.20
78886;DHT22;68269;52.514;5.722;2024-02-14T02:44:21;9.30;73.10
78886;DHT22;68269;52.514;5.722;2024-02-14T02:46:50;9.40;73.10
78886;DHT22;68269;52.514;5.722;2024-02-14T02:49:20;9.40;73.20
78886;DHT22;68269;52.514;5.722;2024-02-14T02:51:49;9.40;73.20
78886;DHT22;68269;52.514;5.722;2024-02-14T02:54:21;9.40;73.30
78886;DHT22;68269;52.514;5.722;2024-02-14T02:56:50;9.40;73.30
78886;DHT22;68269;52.514;5.722;2024-02-14T02:59:20;9.40;73.40
78886;DHT22;68269;52.514;5.722;2024-02-14T03:01:49;9.40;73.40
78886;DHT22;68269;52.514;5.722;2024-02-14T03:04:18;9.40;73.40
78886;DHT22;68269;52.514;5.722;2024-02-14T03:06:47;9.40;73.50
78886;DHT22;68269;52.514;5.722;2024-02-14T03:09:19;9.40;73.50
78886;DHT22;68269;52.514;5.722;2024-02-14T03:11:49;9.50;73.60
78886;DHT22;68269;52.514;5.722;2024-02-14T03:14:18;9.50;73.60
78886;DHT22;68269;52.514;5.722;2024-02-14T03:16:47;9.50;73.70
78886;DHT22;68269;52.514;5.722;2024-02-14T03:19:17;9.50;73.70
78886;DHT22;68269;52.514;5.722;2024-02-14T03:21:48;9.50;73.80
78886;DHT22;68269;52.514;5.722;2024-02-14T03:24:20;9.50;73.90
78886;DHT22;68269;52.514;5.722;2024-02-14T03:26:51;9.50;73.90
78886;DHT22;68269;52.514;5.722;2024-02-14T03:29:21;9.50;73.90
78886;DHT22;68269;52.514;5.722;2024-02-14T03:31:51;9.60;73.90
78886;DHT22;68269;52.514;5.722;2024-02-14T03:34:23;9.60;74.00
78886;DHT22;68269;52.514;5.722;2024-02-14T03:36:52;9.60;74.00
78886;DHT22;68269;52.514;5.722;2024-02-14T03:39:24;9.60;74.00
78886;DHT22;68269;52.514;5.722;2024-02-14T03:41:53;9.60;74.10
78886;DHT22;68269;52.514;5.722;2024-02-14T03:44:23;9.60;74.10
78886;DHT22;68269;52.514;5.722;2024-02-14T03:46:52;9.60;74.10
78886;DHT22;68269;52.514;5.722;2024-02-14T03:49:22;9.60;74.10
78886;DHT22;68269;52.514;5.722;2024-02-14T03:51:52;9.60;74.20
78886;DHT22;68269;52.514;5.722;2024-02-14T03:54:25;9.60;74.20
78886;DHT22;68269;52.514;5.722;2024-02-14T03:56:54;9.60;74.30
78886;DHT22;68269;52.514;5.722;2024-02-14T03:59:23;9.70;74.30
78886;DHT22;68269;52.514;5.722;2024-02-14T04:01:53;9.60;74.30
78886;DHT22;68269;52.514;5.722;2024-02-14T04:04:24;9.60;74.40
78886;DHT22;68269;52.514;5.722;2024-02-14T04:06:54;9.70;74.40
78886;DHT22;68269;52.514;5.722;2024-02-14T04:09:27;9.70;74.50
78886;DHT22;68269;52.514;5.722;2024-02-14T04:11:56;9.70;74.50
78886;DHT22;68269;52.514;5.722;2024-02-14T04:14:25;9.70;74.50
78886;DHT22;68269;52.514;5.722;2024-02-14T04:16:55;9.70;74.60
78886;DHT22;68269;52.514;5.722;2024-02-14T04:19:24;9.70;74.60
78886;DHT22;68269;52.514;5.722;2024-02-14T04:21:54;9.70;74.60
78886;DHT22;68269;52.514;5.722;2024-02-14T04:24:24;9.70;74.70
78886;DHT22;68269;52.514;5.722;2024-02-14T04:26:56;9.70;74.70
78886;DHT22;68269;52.514;5.722;2024-02-14T04:29:25;9.70;74.70
78886;DHT22;68269;52.514;5.722;2024-02-14T04:31:56;9.70;74.70
78886;DHT22;68269;52.514;5.722;2024-02-14T04:34:25;9.70;74.80
78886;DHT22;68269;52.514;5.722;2024-02-14T04:36:56;9.70;74.80
78886;DHT22;68269;52.514;5.722;2024-02-14T04:39:25;9.80;74.80
78886;DHT22;68269;52.514;5.722;2024-02-14T04:41:57;9.80;74.80
78886;DHT22;68269;52.514;5.722;2024-02-14T04:44:27;9.80;74.80
78886;DHT22;68269;52.514;5.722;2024-02-14T04:46:57;9.80;74.90
78886;DHT22;68269;52.514;5.722;2024-02-14T04:49:27;9.80;74.90
78886;DHT22;68269;52.514;5.722;2024-02-14T04:51:57;9.80;74.90
78886;DHT22;68269;52.514;5.722;2024-02-14T04:54:27;9.90;74.90
78886;DHT22;68269;52.514;5.722;2024-02-14T04:56:59;9.90;75.00
78886;DHT22;68269;52.514;5.722;2024-02-14T04:59:30;10.00;75.00
78886;DHT22;68269;52.514;5.722;2024-02-14T05:01:59;10.00;75.00
78886;DHT22;68269;52.514;5.722;2024-02-14T05:04:28;10.00;75.00
78886;DHT22;68269;52.514;5.722;2024-02-14T05:06:58;10.00;75.00
78886;DHT22;68269;52.514;5.722;2024-02-14T05:09:27;10.00;75.10
78886;DHT22;68269;52.514;5.722;2024-02-14T05:11:59;10.00;75.10
78886;DHT22;68269;52.514;5.722;2024-02-14T05:14:29;10.00;75.10
78886;DHT22;68269;52.514;5.722;2024-02-14T05:16:59;10.00;75.00
78886;DHT22;68269;52.514;5.722;2024-02-14T05:19:29;10.00;75.00
78886;DHT22;68269;52.514;5.722;2024-02-14T05:21:59;10.10;75.00
78886;DHT22;68269;52.514;5.722;2024-02-14T05:24:28;10.10;75.00
78886;DHT22;68269;52.514;5.722;2024-02-14T05:27:00;10.10;75.00
78886;DHT22;68269;52.514;5.722;2024-02-14T05:29:30;10.20;75.10
78886;DHT22;68269;52.514;5.722;2024-02-14T05:31:59;10.20;75.00
78886;DHT22;68269;52.514;5.722;2024-02-14T05:34:28;10.20;75.10
78886;DHT22;68269;52.514;5.722;2024-02-14T05:36:58;10.20;75.20
78886;DHT22;68269;52.514;5.722;2024-02-14T05:39:27;10.20;75.20
78886;DHT22;68269;52.514;5.722;2024-02-14T05:41:56;10.20;75.20
78886;DHT22;68269;52.514;5.722;2024-02-14T05:44:28;10.20;75.30
78886;DHT22;68269;52.514;5.722;2024-02-14T05:46:58;10.20;75.30
78886;DHT22;68269;52.514;5.722;2024-02-14T05:49:27;10.30;75.40
78886;DHT22;68269;52.514;5.722;2024-02-14T05:51:56;10.30;75.40
78886;DHT22;68269;52.514;5.722;2024-02-14T05:54:26;10.30;75.40
78886;DHT22;68269;52.514;5.722;2024-02-14T05:56:55;10.30;75.40
78886;DHT22;68269;52.514;5.722;2024-02-14T05:59:27;10.40;75.40
78886;DHT22;68269;52.514;5.722;2024-02-14T06:01:57;10.40;75.50
78886;DHT22;68269;52.514;5.722;2024-02-14T06:04:29;10.40;75.50
78886;DHT22;68269;52.514;5.722;2024-02-14T06:06:58;10.40;75.50
78886;DHT22;68269;52.514;5.722;2024-02-14T06:09:27;10.40;75.50
78886;DHT22;68269;52.514;5.722;2024-02-14T06:11:56;10.40;75.60
78886;DHT22;68269;52.514;5.722;2024-02-14T06:14:28;10.40;75.60
78886;DHT22;68269;52.514;5.722;2024-02-14T06:17:00;10.40;75.60
78886;DHT22;68269;52.514;5.722;2024-02-14T06:19:29;10.40;75.70
78886;DHT22;68269;52.514;5.722;2024-02-14T06:21:59;10.40;75.70
78886;DHT22;68269;52.514;5.722;2024-02-14T06:24:28;10.40;75.80
78886;DHT22;68269;52.514;5.722;2024-02-14T06:26:58;10.40;75.80
78886;DHT22;68269;52.514;5.722;2024-02-14T06:29:30;10.40;75.80
78886;DHT22;68269;52.514;5.722;2024-02-14T06:31:59;10.40;75.80
78886;DHT22;68269;52.514;5.722;2024-02-14T06:34:28;10.40;75.80
78886;DHT22;68269;52.514;5.722;2024-02-14T06:36:58;10.40;75.80
78886;DHT22;68269;52.514;5.722;2024-02-14T06:39:27;10.40;75.90
78886;DHT22;68269;52.514;5.722;2024-02-14T06:41:56;10.40;75.90
78886;DHT22;68269;52.514;5.722;2024-02-14T06:44:29;10.40;75.90
78886;DHT22;68269;52.514;5.722;2024-02-14T06:46:58;10.40;75.90
78886;DHT22;68269;52.514;5.722;2024-02-14T06:49:27;10.40;75.90
78886;DHT22;68269;52.514;5.722;2024-02-14T06:51:57;10.40;75.90
78886;DHT22;68269;52.514;5.722;2024-02-14T06:54:26;10.50;75.90
78886;DHT22;68269;52.514;5.722;2024-02-14T06:56:55;10.50;75.90
78886;DHT22;68269;52.514;5.722;2024-02-14T06:59:28;10.50;76.00
78886;DHT22;68269;52.514;5.722;2024-02-14T07:01:58;10.50;76.00
78886;DHT22;68269;52.514;5.722;2024-02-14T07:04:27;10.50;76.00
78886;DHT22;68269;52.514;5.722;2024-02-14T07:06:57;10.50;76.00
78886;DHT22;68269;52.514;5.722;2024-02-14T07:09:26;10.50;76.00
78886;DHT22;68269;52.514;5.722;2024-02-14T07:11:55;10.50;76.00
78886;DHT22;68269;52.514;5.722;2024-02-14T07:14:25;10.50;76.00
78886;DHT22;68269;52.514;5.722;2024-02-14T07:16:57;10.50;76.10
78886;DHT22;68269;52.514;5.722;2024-02-14T07:19:26;10.50;76.10
78886;DHT22;68269;52.514;5.722;2024-02-14T07:21:55;10.60;76.00
78886;DHT22;68269;52.514;5.722;2024-02-14T07:24:25;10.50;76.00
78886;DHT22;68269;52.514;5.722;2024-02-14T07:26:54;10.60;76.10
78886;DHT22;68269;52.514;5.722;2024-02-14T07:29:24;10.60;76.10
78886;DHT22;68269;52.514;5.722;2024-02-14T07:31:53;10.60;76.10
78886;DHT22;68269;52.514;5.722;2024-02-14T07:34:27;10.60;76.10
78886;DHT22;68269;52.514;5.722;2024-02-14T07:36:57;10.60;76.10
78886;DHT22;68269;52.514;5.722;2024-02-14T07:39:26;10.60;76.10
78886;DHT22;68269;52.514;5.722;2024-02-14T07:41:55;10.60;76.10
78886;DHT22;68269;52.514;5.722;2024-02-14T07:44:24;10.60;76.20
78886;DHT22;68269;52.514;5.722;2024-02-14T07:46:54;10.60;76.10
78886;DHT22;68269;52.514;5.722;2024-02-14T07:49:23;10.60;76.20
78886;DHT22;68269;52.514;5.722;2024-02-14T07:51:55;10.60;76.20
78886;DHT22;68269;52.514;5.722;2024-02-14T07:54:24;10.60;76.20
78886;DHT22;68269;52.514;5.722;2024-02-14T07:56:54;10.60;76.20
78886;DHT22;68269;52.514;5.722;2024-02-14T07:59:23;10.60;76.20
78886;DHT22;68269;52.514;5.722;2024-02-14T08:01:53;10.60;76.20
78886;DHT22;68269;52.514;5.722;2024-02-14T08:04:22;10.70;76.20
78886;DHT22;68269;52.514;5.722;2024-02-14T08:06:54;10.70;76.20
78886;DHT22;68269;52.514;5.722;2024-02-14T08:09:24;10.70;76.30
78886;DHT22;68269;52.514;5.722;2024-02-14T08:11:53;10.70;76.30
78886;DHT22;68269;52.514;5.722;2024-02-14T08:14:22;10.70;76.40
78886;DHT22;68269;52.514;5.722;2024-02-14T08:16:52;10.70;76.40
78886;DHT22;68269;52.514;5.722;2024-02-14T08:19:21;10.70;76.40
78886;DHT22;68269;52.514;5.722;2024-02-14T08:21:51;10.70;76.40
78886;DHT22;68269;52.514;5.722;2024-02-14T08:24:28;10.70;76.40
78886;DHT22;68269;52.514;5.722;2024-02-14T08:26:57;10.70;76.40
78886;DHT22;68269;52.514;5.722;2024-02-14T08:29:26;10.70;76.40
78886;DHT22;68269;52.514;5.722;2024-02-14T08:31:55;10.70;76.40
78886;DHT22;68269;52.514;5.722;2024-02-14T08:34:25;10.70;76.40
78886;DHT22;68269;52.514;5.722;2024-02-14T08:36:54;10.70;76.40
78886;DHT22;68269;52.514;5.722;2024-02-14T08:39:23;10.70;76.40
78886;DHT22;68269;52.514;5.722;2024-02-14T08:41:55;10.70;76.40
78886;DHT22;68269;52.514;5.722;2024-02-14T08:44:28;10.70;76.40
78886;DHT22;68269;52.514;5.722;2024-02-14T08:46:57;10.70;76.40
78886;DHT22;68269;52.514;5.722;2024-02-14T08:49:26;10.80;76.40
78886;DHT22;68269;52.514;5.722;2024-02-14T08:51:56;10.80;76.40
78886;DHT22;68269;52.514;5.722;2024-02-14T08:54:25;10.80;76.40
78886;DHT22;68269;52.514;5.722;2024-02-14T08:56:57;10.80;76.40
78886;DHT22;68269;52.514;5.722;2024-02-14T08:59:27;10.90;76.40
78886;DHT22;68269;52.514;5.722;2024-02-14T09:01:56;10.90;76.30
78886;DHT22;68269;52.514;5.722;2024-02-14T09:04:25;10.90;76.40
78886;DHT22;68269;52.514;5.722;2024-02-14T09:06:55;10.90;76.50
78886;DHT22;68269;52.514;5.722;2024-02-14T09:09:25;10.90;76.50
78886;DHT22;68269;52.514;5.722;2024-02-14T09:11:56;10.90;76.50
78886;DHT22;68269;52.514;5.722;2024-02-14T09:14:28;10.90;76.60
78886;DHT22;68269;52.514;5.722;2024-02-14T09:16:57;10.90;76.60
78886;DHT22;68269;52.514;5.722;2024-02-14T09:19:27;11.00;76.60
78886;DHT22;68269;52.514;5.722;2024-02-14T09:21:56;11.00;76.50
78886;DHT22;68269;52.514;5.722;2024-02-14T09:24:25;11.00;76.50
78886;DHT22;68269;52.514;5.722;2024-02-14T09:26:57;11.00;76.50
78886;DHT22;68269;52.514;5.722;2024-02-14T09:29:28;11.00;76.60
78886;DHT22;68269;52.514;5.722;2024-02-14T09:31:58;10.90;76.60
78886;DHT22;68269;52.514;5.722;2024-02-14T09:34:27;10.90;76.60
78886;DHT22;68269;52.514;5.722;2024-02-14T09:36:57;11.00;76.70
78886;DHT22;68269;52.514;5.722;2024-02-14T09:39:27;11.00;76.70
78886;DHT22;68269;52.514;5.722;2024-02-14T09:41:59;11.00;76.70
78886;DHT22;68269;52.514;5.722;2024-02-14T09:44:29;11.10;76.60
78886;DHT22;68269;52.514;5.722;2024-02-14T09:46:59;11.10;76.60
78886;DHT22;68269;52.514;5.722;2024-02-14T09:49:30;11.10;76.60
78886;DHT22;68269;52.514;5.722;2024-02-14T09:52:01;11.10;76.60
78886;DHT22;68269;52.514;5.722;2024-02-14T09:54:31;11.10;76.60
78886;DHT22;68269;52.514;5.722;2024-02-14T09:57:05;11.10;76.60
78886;DHT22;68269;52.514;5.722;2024-02-14T09:59:35;11.20;76.60
78886;DHT22;68269;52.514;5.722;2024-02-14T10:02:05;11.30;76.50
78886;DHT22;68269;52.514;5.722;2024-02-14T10:04:36;11.30;76.50
78886;DHT22;68269;52.514;5.722;2024-02-14T10:07:06;11.40;76.50
78886;DHT22;68269;52.514;5.722;2024-02-14T10:09:40;11.40;76.50
78886;DHT22;68269;52.514;5.722;2024-02-14T10:12:13;11.40;76.50
78886;DHT22;68269;52.514;5.722;2024-02-14T10:14:42;11.40;76.50
78886;DHT22;68269;52.514;5.722;2024-02-14T10:17:17;11.50;76.50
78886;DHT22;68269;52.514;5.722;2024-02-14T10:19:57;11.50;76.50
78886;DHT22;68269;52.514;5.722;2024-02-14T10:22:34;11.50;76.50
78886;DHT22;68269;52.514;5.722;2024-02-14T10:25:04;11.50;76.50
78886;DHT22;68269;52.514;5.722;2024-02-14T10:27:38;11.50;76.50
78886;DHT22;68269;52.514;5.722;2024-02-14T10:30:09;11.50;76.50
78886;DHT22;68269;52.514;5.722;2024-02-14T10:32:39;11.50;76.50
78886;DHT22;68269;52.514;5.722;2024-02-14T10:35:14;11.50;76.60
78886;DHT22;68269;52.514;5.722;2024-02-14T10:37:44;11.50;76.60
78886;DHT22;68269;52.514;5.722;2024-02-14T10:40:15;11.50;76.60
78886;DHT22;68269;52.514;5.722;2024-02-14T10:42:47;11.60;76.60
78886;DHT22;68269;52.514;5.722;2024-02-14T10:45:16;11.70;76.50
78886;DHT22;68269;52.514;5.722;2024-02-14T10:47:47;11.70;76.50
78886;DHT22;68269;52.514;5.722;2024-02-14T10:50:18;11.70;76.50
78886;DHT22;68269;52.514;5.722;2024-02-14T10:52:52;11.70;76.50
78886;DHT22;68269;52.514;5.722;2024-02-14T10:55:24;11.70;76.50
78886;DHT22;68269;52.514;5.722;2024-02-14T10:57:59;11.70;76.60
78886;DHT22;68269;52.514;5.722;2024-02-14T11:00:28;11.70;76.60
78886;DHT22;68269;52.514;5.722;2024-02-14T11:02:59;11.70;76.60
78886;DHT22;68269;52.514;5.722;2024-02-14T11:05:30;11.70;76.70
78886;DHT22;68269;52.514;5.722;2024-02-14T11:08:08;11.70;76.70
78886;DHT22;68269;52.514;5.722;2024-02-14T11:10:38;11.70;76.70
78886;DHT22;68269;52.514;5.722;2024-02-14T11:13:12;11.70;76.70
78886;DHT22;68269;52.514;5.722;2024-02-14T11:15:45;11.70;76.80
78886;DHT22;68269;52.514;5.722;2024-02-14T11:18:25;11.70;76.80
78886;DHT22;68269;52.514;5.722;2024-02-14T11:20:56;11.70;76.80
78886;DHT22;68269;52.514;5.722;2024-02-14T11:23:26;11.70;76.70
78886;DHT22;68269;52.514;5.722;2024-02-14T11:26:03;11.70;76.80
78886;DHT22;68269;52.514;5.722;2024-02-14T11:28:38;11.70;76.80
78886;DHT22;68269;52.514;5.722;2024-02-14T11:31:08;11.70;76.70
78886;DHT22;68269;52.514;5.722;2024-02-14T11:33:38;11.70;76.80
78886;DHT22;68269;52.514;5.722;2024-02-14T11:36:08;11.70;76.80
78886;DHT22;68269;52.514;5.722;2024-02-14T11:38:41;11.70;76.80
78886;DHT22;68269;52.514;5.722;2024-02-14T11:41:11;11.70;76.80
78886;DHT22;68269;52.514;5.722;2024-02-14T11:43:50;11.70;76.80
78886;DHT22;68269;52.514;5.722;2024-02-14T11:46:20;11.80;76.90
78886;DHT22;68269;52.514;5.722;2024-02-14T11:48:49;11.80;76.80
78886;DHT22;68269;52.514;5.722;2024-02-14T11:51:19;11.80;76.80
78886;DHT22;68269;52.514;5.722;2024-02-14T11:53:48;11.80;76.80
78886;DHT22;68269;52.514;5.722;2024-02-14T11:56:18;11.80;76.80
78886;DHT22;68269;52.514;5.722;2024-02-14T11:58:52;11.80;76.80
78886;DHT22;68269;52.514;5.722;2024-02-14T12:01:21;11.80;76.80
78886;DHT22;68269;52.514;5.722;2024-02-14T12:03:51;11.80;76.90
78886;DHT22;68269;52.514;5.722;2024-02-14T12:06:20;11.80;76.90
78886;DHT22;68269;52.514;5.722;2024-02-14T12:08:50;11.80;76.90
78886;DHT22;68269;52.514;5.722;2024-02-14T12:11:20;11.80;76.90
78886;DHT22;68269;52.514;5.722;2024-02-14T12:13:54;11.80;76.90
78886;DHT22;68269;52.514;5.722;2024-02-14T12:16:24;11.80;76.90
78886;DHT22;68269;52.514;5.722;2024-02-14T12:19:03;11.90;76.90
78886;DHT22;68269;52.514;5.722;2024-02-14T12:21:35;11.90;77.00
78886;DHT22;68269;52.514;5.722;2024-02-14T12:24:06;11.90;76.90
78886;DHT22;68269;52.514;5.722;2024-02-14T12:26:36;11.90;76.90
78886;DHT22;68269;52.514;5.722;2024-02-14T12:29:11;11.90;76.90
78886;DHT22;68269;52.514;5.722;2024-02-14T12:31:42;11.90;77.00
78886;DHT22;68269;52.514;5.722;2024-02-14T12:34:12;11.90;77.00
78886;DHT22;68269;52.514;5.722;2024-02-14T12:36:41;11.90;77.00
78886;DHT22;68269;52.514;5.722;2024-02-14T12:39:10;11.90;77.00
78886;DHT22;68269;52.514;5.722;2024-02-14T12:41:40;11.90;77.10
78886;DHT22;68269;52.514;5.722;2024-02-14T12:44:12;12.00;77.10
78886;DHT22;68269;52.514;5.722;2024-02-14T12:46:41;12.00;77.10
78886;DHT22;68269;52.514;5.722;2024-02-14T12:49:10;12.00;77.10
78886;DHT22;68269;52.514;5.722;2024-02-14T12:51:40;12.00;77.00
78886;DHT22;68269;52.514;5.722;2024-02-14T12:54:09;12.10;77.00
78886;DHT22;68269;52.514;5.722;2024-02-14T12:56:41;12.10;77.00
78886;DHT22;68269;52.514;5.722;2024-02-14T12:59:17;12.20;76.90
78886;DHT22;68269;52.514;5.722;2024-02-14T13:01:47;12.20;77.00
78886;DHT22;68269;52.514;5.722;2024-02-14T13:04:16;12.20;77.00
78886;DHT22;68269;52.514;5.722;2024-02-14T13:06:46;12.20;77.00
78886;DHT22;68269;52.514;5.722;2024-02-14T13:09:16;12.20;76.90
78886;DHT22;68269;52.514;5.722;2024-02-14T13:11:45;12.20;77.00
78886;DHT22;68269;52.514;5.722;2024-02-14T13:14:17;12.20;77.00
78886;DHT22;68269;52.514;5.722;2024-02-14T13:16:46;12.20;77.10
78886;DHT22;68269;52.514;5.722;2024-02-14T13:19:15;12.20;77.10
78886;DHT22;68269;52.514;5.722;2024-02-14T13:21:45;12.20;77.20
78886;DHT22;68269;52.514;5.722;2024-02-14T13:24:14;12.20;77.20
78886;DHT22;68269;52.514;5.722;2024-02-14T13:26:44;12.20;77.20
78886;DHT22;68269;52.514;5.722;2024-02-14T13:29:16;12.20;77.20
78886;DHT22;68269;52.514;5.722;2024-02-14T13:31:46;12.10;77.30
78886;DHT22;68269;52.514;5.722;2024-02-14T13:34:16;12.20;77.30
78886;DHT22;68269;52.514;5.722;2024-02-14T13:36:46;12.20;77.30
78886;DHT22;68269;52.514;5.722;2024-02-14T13:39:15;12.20;77.20
78886;DHT22;68269;52.514;5.722;2024-02-14T13:41:45;12.20;77.20
78886;DHT22;68269;52.514;5.722;2024-02-14T13:44:17;12.20;77.30
78886;DHT22;68269;52.514;5.722;2024-02-14T13:46:46;12.20;77.30
78886;DHT22;68269;52.514;5.722;2024-02-14T13:49:16;12.20;77.30
78886;DHT22;68269;52.514;5.722;2024-02-14T13:51:48;12.20;77.30
78886;DHT22;68269;52.514;5.722;2024-02-14T13:54:18;12.20;77.30
78886;DHT22;68269;52.514;5.722;2024-02-14T13:56:47;12.20;77.30
78886;DHT22;68269;52.514;5.722;2024-02-14T13:59:20;12.20;77.30
78886;DHT22;68269;52.514;5.722;2024-02-14T14:01:50;12.20;77.40
78886;DHT22;68269;52.514;5.722;2024-02-14T14:04:19;12.20;77.30
78886;DHT22;68269;52.514;5.722;2024-02-14T14:06:48;12.20;77.40
78886;DHT22;68269;52.514;5.722;2024-02-14T14:09:18;12.20;77.30
78886;DHT22;68269;52.514;5.722;2024-02-14T14:11:47;12.20;77.40
78886;DHT22;68269;52.514;5.722;2024-02-14T14:14:21;12.20;77.40
78886;DHT22;68269;52.514;5.722;2024-02-14T14:16:53;12.20;77.40
78886;DHT22;68269;52.514;5.722;2024-02-14T14:19:23;12.20;77.40
78886;DHT22;68269;52.514;5.722;2024-02-14T14:21:52;12.30;77.40
78886;DHT22;68269;52.514;5.722;2024-02-14T14:24:22;12.30;77.30
78886;DHT22;68269;52.514;5.722;2024-02-14T14:26:52;12.30;77.30
78886;DHT22;68269;52.514;5.722;2024-02-14T14:29:24;12.30;77.30
78886;DHT22;68269;52.514;5.722;2024-02-14T14:31:54;12.30;77.30
78886;DHT22;68269;52.514;5.722;2024-02-14T14:34:25;12.30;77.30
78886;DHT22;68269;52.514;5.722;2024-02-14T14:36:56;12.30;77.30
78886;DHT22;68269;52.514;5.722;2024-02-14T14:39:26;12.30;77.30
78886;DHT22;68269;52.514;5.722;2024-02-14T14:41:56;12.30;77.40
78886;DHT22;68269;52.514;5.722;2024-02-14T14:44:28;12.30;77.30
78886;DHT22;68269;52.514;5.722;2024-02-14T14:46:57;12.30;77.40
78886;DHT22;68269;52.514;5.722;2024-02-14T14:49:27;12.30;77.40
78886;DHT22;68269;52.514;5.722;2024-02-14T14:51:57;12.40;77.40
78886;DHT22;68269;52.514;5.722;2024-02-14T14:54:26;12.40;77.50
78886;DHT22;68269;52.514;5.722;2024-02-14T14:56:55;12.40;77.40
78886;DHT22;68269;52.514;5.722;2024-02-14T14:59:24;12.30;77.40
78886;DHT22;68269;52.514;5.722;2024-02-14T15:01:56;12.30;77.50
78886;DHT22;68269;52.514;5.722;2024-02-14T15:04:26;12.30;77.50
78886;DHT22;68269;52.514;5.722;2024-02-14T15:06:55;12.30;77.50
78886;DHT22;68269;52.514;5.722;2024-02-14T15:09:24;12.30;77.60
78886;DHT22;68269;52.514;5.722;2024-02-14T15:11:53;12.30;77.60
78886;DHT22;68269;52.514;5.722;2024-02-14T15:14:23;12.30;77.60
78886;DHT22;68269;52.514;5.722;2024-02-14T15:16:53;12.30;77.60
78886;DHT22;68269;52.514;5.722;2024-02-14T15:19:24;12.30;77.60
78886;DHT22;68269;52.514;5.722;2024-02-14T15:21:54;12.30;77.70
78886;DHT22;68269;52.514;5.722;2024-02-14T15:24:24;12.30;77.70
78886;DHT22;68269;52.514;5.722;2024-02-14T15:26:54;12.30;77.70
78886;DHT22;68269;52.514;5.722;2024-02-14T15:29:26;12.30;77.70
78886;DHT22;68269;52.514;5.722;2024-02-14T15:32:08;12.30;77.70
78886;DHT22;68269;52.514;5.722;2024-02-14T15:34:52;12.30;77.70
78886;DHT22;68269;52.514;5.722;2024-02-14T15:37:22;12.30;77.70
78886;DHT22;68269;52.514;5.722;2024-02-14T15:39:51;12.30;77.80
78886;DHT22;68269;52.514;5.722;2024-02-14T15:42:21;12.20;77.70
78886;DHT22;68269;52.514;5.722;2024-02-14T15:44:50;12.30;77.80
78886;DHT22;68269;52.514;5.722;2024-02-14T15:47:19;12.30;77.80
78886;DHT22;68269;52.514;5.722;2024-02-14T15:49:51;12.30;77.70
78886;DHT22;68269;52.514;5.722;2024-02-14T15:52:20;12.30;77.80
78886;DHT22;68269;52.514;5.722;2024-02-14T15:54:50;12.30;77.80